Identifiez vous afin de poster une observation
 • Tableaux GEFS   

Tableaux GEFS de Températures 500hPa (°C)

Run GEFS du 20/11/2017 06Z - Choix du run : 00 - 06 - 12 - 18 Sauver tableau : Conserver cette image

Paramètres : [ Temp. 850hPa ] - [ Temp. 500hPa ] - [ Pression ] - [ Précip. ] - [ Temp. 2m ] - [ Z500 ] - [ CAPE ] -
[ Vent+Direction 10m ] - [ Vent 10m ] - [ Vent+Direction 850hPa ] - [ Vent 850hPa ] -
Tri des valeurs : [ Par scénario ] - [ Ascendant ] - [ Descendant ]

Localisation : 42.7N 23.3E

DateEch.
2017-11-20 06Z0-31.1-31.1-31-30.8-30.6-30.6-30.6-30.6-30.6-30.5-30.4-30.3-30.3-30.1-30.1-30.1-30.1-30.1-30.1-30.1-30.1-30
2017-11-20 09Z3-31.8-31.8-31.6-31.5-31.3-31.3-31.3-31.2-31.1-31.1-31.1-31.1-31.1-31-31-31-31-31-30.8-30.8-30.6-30.6
2017-11-20 12Z6-32-31.8-31.8-31.8-31.8-31.6-31.5-31.5-31.3-31.3-31.3-31.3-31.3-31.3-31.1-31.1-31.1-31.1-31.1-31.1-31-30.8
2017-11-20 15Z9-32.1-32.1-32-32-31.8-31.8-31.8-31.8-31.8-31.8-31.6-31.6-31.6-31.6-31.5-31.5-31.5-31.3-31.3-31.3-31.1-30.8
2017-11-20 18Z12-31.3-30.9-30.6-30.6-30.5-30.5-30.3-30.3-30.1-30.1-30.1-30.1-30.1-30.1-29.8-29.6-29.6-29.6-29.3-29.3-29.1-28
2017-11-20 21Z15-26.8-26.3-26.1-26-25.8-25.6-25.6-25.6-25.5-25.5-25.3-25.3-25.3-25.3-25.1-25.1-25.1-25-25-24.8-24.8-24.1
2017-11-21 00Z18-24-24-23.8-23.8-23.8-23.8-23.6-23.6-23.6-23.6-23.6-23.6-23.6-23.6-23.5-23.5-23.5-23.5-23.3-23.3-23.3-23.3
2017-11-21 03Z21-24.1-24.1-24.1-24-24-23.8-23.8-23.8-23.8-23.8-23.8-23.8-23.8-23.8-23.6-23.6-23.6-23.6-23.6-23.5-23.5-23.1
2017-11-21 06Z24-24.1-24.1-24.1-24-24-24-23.9-23.8-23.8-23.6-23.6-23.6-23.6-23.5-23.5-23.5-23.5-23.5-23.3-23.3-23.3-23.1
2017-11-21 09Z27-24.3-24.1-24-23.8-23.8-23.8-23.8-23.8-23.6-23.6-23.6-23.6-23.5-23.3-23.3-23.3-23.3-23.3-23.3-23.1-23.1-23
2017-11-21 12Z30-24.3-24-24-23.8-23.8-23.8-23.8-23.6-23.6-23.6-23.6-23.6-23.6-23.5-23.3-23.3-23.3-23.3-23.3-23.3-23-22.8
2017-11-21 15Z33-23.8-23.6-23.5-23.3-23.3-23.1-23.1-23.1-23.1-23.1-23-23-22.9-22.8-22.8-22.6-22.6-22.6-22.5-22.3-22.3-22.1
2017-11-21 18Z36-23.2-23-22.8-22.8-22.8-22.8-22.6-22.6-22.6-22.5-22.5-22.3-22.3-22.3-22.3-22.3-22.1-22.1-22.1-21.8-21.8-21.6
2017-11-21 21Z39-23.3-23.3-23.1-23.1-22.6-22.5-22.3-22.3-22.3-22.1-22.1-22.1-22.1-22.1-22.1-22-22-21.8-21.8-21.8-21.3-20.6
2017-11-22 00Z42-21.6-21.1-20.8-20.8-20.8-20.8-20.8-20.8-20.6-20.3-20.3-20.3-20.1-20.1-20.1-20.1-20.1-19.8-19.8-19.8-19.6-19.3
2017-11-22 03Z45-20.3-19.8-19.6-19.6-19.6-19.6-19.5-19.3-19.3-19.3-19.3-19.3-19.3-19.1-19.1-19-19-18.9-18.6-18.6-18.3-18.1
2017-11-22 06Z48-21.1-20.3-20.3-20.1-20-20-19.8-19.6-19.6-19.6-19.5-19.5-19.3-19.3-19.3-19.3-19.1-19.1-19.1-18.8-18.6-18.1
2017-11-22 09Z51-20.3-20.1-20-20-20-19.6-19.6-19.6-19.6-19.5-19.5-19.5-19.5-19.5-19.3-19.3-19.3-19.3-18.8-18.8-18.8-18.5
2017-11-22 12Z54-19.5-19.1-19.1-19-18.8-18.6-18.6-18.6-18.4-18.1-18.1-18-18-17.8-17.8-17.8-17.6-17.6-17.6-17.5-17.5-17.3
2017-11-22 15Z57-19.3-18.8-18.6-18.3-18.3-18.3-18.1-18-17.8-17.8-17.8-17.8-17.6-17.6-17.3-17.3-17.3-17.3-17.1-17.1-17.1-17
2017-11-22 18Z60-18.8-18.8-18.6-18.6-18.3-18.2-18.1-18.1-18.1-18.1-18-17.8-17.8-17.8-17.6-17.6-17.6-17.3-17.3-17.1-17-16.7
2017-11-22 21Z63-19.1-18.8-18.8-18.1-18.1-18.1-18.1-18.1-18-17.8-17.8-17.8-17.8-17.6-17.6-17.6-17.6-17.3-17.1-16.8-16.8-16.7
2017-11-23 00Z66-20.1-19-18.6-18.3-18.3-18.3-18.3-18.1-18.1-18-17.8-17.6-17.5-17.5-17.3-17.1-17-16.8-16.7-16.7-16.7-16.2
2017-11-23 03Z69-18.8-18.3-18.3-18.1-18.1-18-18-17.8-17.5-17.5-17.5-17.5-17-17-17-17-16.5-16.5-16.5-16.5-16.2-15.7
2017-11-23 06Z72-17.8-17.5-17.3-17.1-17.1-17.1-17-17-17-16.7-16.6-16.5-16.2-16.1-16.1-15.7-15.7-15.7-15.7-15.7-15.5-15.2
2017-11-23 09Z75-17.1-16.8-16.6-16.6-16.6-16.3-16.2-16.2-16-16-15.7-15.6-15.6-15.5-15.3-15.2-15.2-15.2-15-15-14.8-14.7
2017-11-23 12Z78-16.7-16.6-16.3-16.1-15.7-15.7-15.6-15.2-15.2-15.2-15.1-15.1-15.1-15-15-15-14.8-14.8-14.7-14.7-14.7-14.6
2017-11-23 15Z81-16.6-16.5-15.5-15.3-15.3-15.3-15.2-15.2-15.2-15.2-15.1-15.1-15-14.8-14.8-14.8-14.8-14.6-14.6-14.5-14.3-14.3
2017-11-23 18Z84-16.5-16-15.8-15.8-15.6-15.5-15.5-15.3-15.3-15.2-15.2-15.2-15.2-15.2-14.8-14.7-14.6-14.6-14.6-14.6-14.6-14.5
2017-11-23 21Z87-16.6-16.2-16.2-16.2-16.2-16-16-16-16-15.8-15.8-15.6-15.5-15.5-15.2-15.2-15.1-15-14.8-14.7-14.6-14.2
2017-11-24 00Z90-17.1-17-16.7-16.6-16.6-16.5-16.5-16.3-16.3-16.3-16.1-16-15.8-15.8-15.7-15.6-15.5-15.5-15.3-15.2-15-14.2
2017-11-24 03Z93-17.8-17.1-17-16.8-16.7-16.7-16.7-16.6-16.6-16.6-16.5-16.4-16.3-16.3-16.2-16.1-16.1-16-16-15.8-15.8-14.8
2017-11-24 06Z96-18.8-17.5-17.3-17.3-17.1-17.1-17.1-17-16.9-16.8-16.7-16.7-16.6-16.6-16.5-16.5-16.5-16.3-16.3-16.3-16.2-15.7
2017-11-24 09Z99-18.3-17.6-17.6-17.6-17.5-17.5-17.3-17.3-17.3-17.1-17-17-17-16.7-16.6-16.6-16.6-16.5-16.5-16.3-16.2-15.8
2017-11-24 12Z102-18.1-18-18-17.6-17.6-17.6-17.5-17.5-17.3-17.1-17.1-17-16.8-16.8-16.7-16.7-16.7-16.5-16.3-16.2-16.1-15.3
2017-11-24 15Z105-18.8-18.5-18-18-17.6-17.6-17.6-17.5-17.3-17.3-17.3-17-17-17-16.8-16.6-16.6-16.2-16.2-16.2-16-15.3
2017-11-24 18Z108-19.6-19.3-18.6-18.3-18.3-18-17.8-17.7-17.6-17.6-17.3-17-17-17-16.8-16.7-16.7-16.6-16.2-16.2-16.1-15.7
2017-11-24 21Z111-20.5-20.1-18.8-18.6-18.5-18.5-18.1-18.1-18.1-18-17.5-17.3-17-17-16.8-16.7-16.6-16.6-16.5-16.3-16.2-15.7
2017-11-25 00Z114-21.3-21.1-18.8-18.5-18.5-18.1-18.1-18-17.7-17.1-17-16.8-16.7-16.6-16.6-16.6-16.6-16.6-16.3-16.3-16.2-15.7
2017-11-25 03Z117-21.8-21.8-18.8-18.8-18.3-18.1-18-18-17-16.8-16.8-16.6-16.6-16.6-16.3-16.2-16.1-16.1-16.1-16-15.8-15.7
2017-11-25 06Z120-22.6-22.1-19.3-19.1-18.3-18.1-17.8-17.5-17.1-17-16.8-16.7-16.7-16.7-16.6-16.6-16.5-16.3-16.1-15.8-15.6-15.1
2017-11-25 09Z123-22.6-21.5-19.6-19.1-18-17.8-17.6-17.5-17.5-17.3-17-17-16.8-16.8-16.7-16.5-16.3-16.2-16.1-15.8-15.5-15
2017-11-25 12Z126-21.6-21.3-19.6-18.1-18.1-17.8-17.8-17.6-17.6-17.1-17.1-16.8-16.7-16.5-16.5-16.1-16-16-15.8-15.7-15.2-14.6
2017-11-25 15Z129-21.6-21.1-19.8-18.1-17.8-17.8-17.8-17.8-17.6-17.3-17.1-16.7-16.7-16.3-16.2-15.8-15.8-15.7-15.7-14.7-14.7-14.3
2017-11-25 18Z132-22-20.8-19.8-18.5-18-17.8-17.6-17.6-17.5-17.1-17.1-16.8-16.3-16.2-16-15.8-15.7-15.7-15.7-14.8-14.3-14.2
2017-11-25 21Z135-22.1-20.8-20.3-19.8-18.3-17.8-17.5-17.3-17-16.8-16.7-16.5-16.3-16.2-16.2-16.1-15.7-15.6-15.5-15.1-14.5-14.2
2017-11-26 00Z138-21.8-21.1-20.8-19.6-18.8-17.8-17.6-17-16.8-16.7-16.7-16.5-16.2-16-15.7-15.7-15.6-15.2-14.8-14.6-14.1-13.3
2017-11-26 03Z141-21.6-21.1-20.8-19.6-18.8-17.8-17.6-16.7-16.7-16.7-16.3-16.2-16.1-16-15.8-15.7-15.3-15.1-14.7-14.6-14.2-13.5
2017-11-26 06Z144-21.1-20.8-20.6-19.8-18.5-17.6-17.6-17-16.7-16.6-16.5-16.2-16.2-16.1-15.7-15.6-15.5-15.2-14.8-14.8-14.5-13.2
2017-11-26 09Z147-20.6-20.3-19.6-19.5-17.8-17.5-17.3-17.1-16.8-16.5-16.5-16.2-16.2-16.2-15.7-15.7-15.5-15.2-15-14.2-14-12.5
2017-11-26 12Z150-20.6-20-18.8-18-17.8-17.6-17.3-17.1-16.8-16.7-16.6-16.2-16-16-15.7-15.6-15.5-15.1-14.7-14.2-13.7-12.5
2017-11-26 15Z153-19.8-19.3-19.1-18.5-18.3-17.5-17.5-17.3-17.1-17.1-16.7-16.7-16.2-15.7-15.6-15.2-15.1-15-14.3-14.3-13.6-13
2017-11-26 18Z156-19.6-19.5-19.5-19.3-18.8-17.6-17.5-17.3-17.3-17-16.8-16.5-16.3-16.3-16-15.2-15.2-15.1-14.7-14.3-13.6-13
2017-11-26 21Z159-19.6-19.5-19.1-19.1-18.8-18.8-17.6-17.3-17.3-17-17-16.8-16.7-16.6-16.3-16-15.5-15.1-14.7-14.5-13.6-13.5
2017-11-27 00Z162-21.1-20-19.8-19.5-19.1-18.6-18.1-18-17.8-17.8-17.8-17.2-17.1-17.1-16.8-16.6-16.5-15.6-15.1-14.8-14.8-14.1
2017-11-27 03Z165-23.8-21.1-20.3-20-19.1-18.8-18.6-18.5-18.3-18.1-18-17.8-17.7-17.6-17.1-16.7-16.7-16.3-16-15.7-15.5-14.6
2017-11-27 06Z168-24.8-23-21.1-19.6-19.5-18.8-18.6-18.6-18.5-18.4-18.3-18.1-17.8-17.8-17.6-17.5-17.5-16.6-16.5-16.1-16-15
2017-11-27 09Z171-27-25.3-23-20.6-20-19.8-19.3-18.8-18.8-18.3-18.3-18-17.6-17.6-17.6-17.3-17.3-17.3-17-16.7-16.3-15.6
2017-11-27 12Z174-27.3-26.8-24.1-21.3-20.5-20.3-20.1-19.8-19.7-19.1-18.6-18.3-18.1-17.8-17.6-17.5-17.3-17.3-17-16.7-16.2-16.2
2017-11-27 15Z177-26.6-25.3-23.8-22.6-21-20.6-20.6-20.1-20.1-19.5-19.3-18.8-17.8-17.8-17.6-17.3-17.3-17.1-17.1-16.8-16.7-16.2
2017-11-27 18Z180-26-24.8-24.1-23.8-22.3-21.3-21.3-20.8-20.6-20.6-20.1-19-18.5-18.1-17.8-17.8-17.8-17.8-17.5-17.3-16.8-16.8
2017-11-27 21Z183-26.1-25.3-24.5-24-22.6-22-21.6-21.3-21.3-19.8-19.3-19.1-19.1-19.1-18.3-18.3-18.1-17.8-17.6-17.6-17-16.7
2017-11-28 00Z186-25.1-24.8-23.8-23.1-22.6-22.3-21.6-21.6-21.1-20.8-19.3-19.3-19.3-19.3-19.1-18.8-18.3-18.3-18.1-17.8-17.3-17
2017-11-28 03Z189-30.1-25.6-23.6-23.3-22.9-22.8-22.1-21.6-21.3-21.1-20.6-20.1-19.8-19.8-19.6-18.8-18.8-18.3-17.6-17.6-17.5-17.1
2017-11-28 06Z192-32.5-25.8-24.6-24.2-23.6-22.5-22-21.8-21.6-21.5-21.1-20.5-20.5-20.3-20-19.6-19.5-18.6-18.1-18-16.7-16
2017-11-28 12Z198-33.6-24.8-24.2-23.3-23-22.5-22.1-21.8-21.8-21.1-21.1-20.8-20.5-20.1-20.1-20-19.6-18.5-17.8-17.8-16.2-16.1
2017-11-28 18Z204-30.6-24.4-23.6-23-23-22.6-22.6-21.8-21.3-21-20.6-20.6-20.6-20.5-20.3-20.3-19.8-19-18.3-18.1-18-15.7
2017-11-29 00Z210-30-23.8-23.5-23.4-23.3-22.3-22.1-22-22-21.3-21-20.8-20.8-20.3-20.1-20.1-20.1-19.1-19-19-18.3-16.3
2017-11-29 06Z216-30.8-23.3-22.8-22.6-21.8-21.8-21.6-21.6-21.5-21.3-21-21-20.8-20.6-20.1-20.1-20.1-19.8-19.3-18-17.6-17.6
2017-11-29 12Z222-30.1-25-24.8-22.8-22.1-21.8-21.6-21.4-21.3-20.6-20.3-20.3-20.1-20-19.8-19.8-19.6-19.3-18.8-17.8-17.8-17.6
2017-11-29 18Z228-29.3-28.3-25.8-23.1-22.1-22.1-21.6-21.3-21.1-21-20.5-20.3-20.3-20.1-20-19.6-18.8-18.5-18.1-18-17.8-17.3
2017-11-30 00Z234-28.6-27.3-25.8-23.8-22.6-21.8-21.6-21.2-21.1-21.1-20.5-20.3-20.3-20.1-19.8-19-18.8-18.8-18.6-18.1-16.3-15.8
2017-11-30 06Z240-29.1-28.6-27.8-22.5-22-21.8-21.6-21.5-21.5-21.5-21.3-20.8-20.6-20.1-20.1-19.8-19.6-19.1-18.1-18.1-16.7-14.8
2017-11-30 12Z246-30.1-29.8-29.8-22.5-21.8-21.6-21.1-20.8-20.8-20.8-20.8-20.6-20.3-20.3-20.1-19.5-18.3-17.8-17.3-17-14.1
2017-11-30 18Z252-31.6-31.3-28.6-22.8-21.8-21.6-21.6-21.3-21.1-21-20.8-20.5-20.3-20.1-20-20-19.8-17.8-17.6-17.1-16.2-14.6
2017-12-01 00Z258-32.6-31.6-30.5-24.1-22.1-21.8-21.8-21.3-21.1-21.1-21.1-20.8-19.6-19.6-19.5-19.1-18.3-16.3-16.2-16.1-14.6
2017-12-01 06Z264-32.5-31.6-31.1-25.6-22.8-22.3-22.1-21.8-21.3-20.8-20.8-20.4-20.3-19.8-19.8-19.1-19-17.5-17.1-16.7-16.3-15.2
2017-12-01 12Z270-32.6-31.1-29.8-22.6-22.1-21.8-21.5-21.1-20.6-20.6-20.1-20.1-19.8-19.8-19.3-19.3-18.3-18-17-16-15.6
2017-12-01 18Z276-33.3-30.8-29.3-23.5-22.6-22.3-21.8-21.6-21.3-21.1-21-20.8-20.5-20.5-20.3-19.8-19.3-19.1-17.6-17-16.1-15.6
2017-12-02 00Z282-35-28-27.5-25.8-24.1-22.6-22.5-22.3-22.3-21.3-21.3-21-20.5-19.5-19.3-19.3-19.1-17.3-16.5-16.2-15.6
2017-12-02 06Z288-37-27.6-27.6-26.3-25.6-25.1-25.1-24.8-23-22.3-22.3-22.1-20.6-20.6-20.5-19.5-19.1-18.8-18.3-17.3-16.8-16.7
2017-12-02 12Z294-35.6-28.8-28-27.8-25.1-24.3-23.1-21.8-21.5-21.3-21.3-21.1-20.6-20.3-20.1-20-19.6-18.8-18.8-18.3-17.6
2017-12-02 18Z300-35.5-29.5-27.3-27-26.5-23.9-23-21.6-21.3-21.1-20.6-20.6-20.6-20.5-20.5-20.3-20.1-19.8-19.6-19.6-19-18.6
2017-12-03 00Z306-35.3-29.1-28.6-24.3-22.8-22.6-21.8-21.1-21-20.8-20.6-20.6-20.6-20.3-20.3-20.3-19.3-19.1-18.8-18.6-18.3
2017-12-03 06Z312-33.6-27.1-26.8-23.1-22.6-22.3-21.8-21.8-21.6-21.5-21.5-21.3-21.3-21.2-20.6-20.5-20.1-19.3-19.1-18.6-18.1-18
2017-12-03 12Z318-27.1-25-23.3-22.8-22-21.5-21.3-21.3-21.1-21.1-20.8-20.6-20.1-20-19.5-19.1-18.8-18.6-18.6-18.6-17.6
2017-12-03 18Z324-25.1-24.8-23.8-23.6-23.1-22.1-21.8-21.8-21.8-21.5-21.1-21-20.4-20.3-20.3-19.6-19.5-18.8-18.5-18.3-18.1-16.2
2017-12-04 00Z330-26.1-24.6-24-23-23-22.6-22.5-22.3-22.3-21.5-21.1-20.8-20.6-20.1-20-19.8-19.6-19.1-18.8-18.8-17.1
2017-12-04 06Z336-26.5-24.3-23.3-23.1-23-23-22.6-22.6-22.5-22.3-22.1-21.8-21.6-20.9-20.6-20.1-19.8-19.8-19.1-18.1-18.1-16.6
2017-12-04 12Z342-26.1-25.6-25.1-23.8-23.8-23.3-23-22.6-22.6-22.3-22.3-21.6-21-20.3-20.1-19.3-19.3-18.6-18.1-17.3-16.2
2017-12-04 18Z348-27.8-26.3-26.3-24.8-24.1-23.8-23.5-23.1-22.9-22.6-22.5-22.3-21.8-21-20.5-20.3-20.1-19.6-19.3-19.1-17-16.7
2017-12-05 00Z354-27.5-26.6-25.3-25.3-25.1-24.6-24.1-23.8-23.1-23-23-22.1-22-21.3-20.6-20.6-20.3-19.8-18.8-17.5-17.1
2017-12-05 06Z360-30.3-27.8-26.8-25.8-25.8-25.1-24.8-24.6-24.6-23.1-22.8-22-21.8-21.8-21.6-21.1-20.8-20.3-20.1-20-18.8-16
2017-12-05 12Z366-31.6-28.1-26.5-24.8-24.8-24.6-23.6-22.8-22.3-22.3-21.8-21.3-21.3-21.3-21.1-20.8-20-19.5-19.3-19-17.1
2017-12-05 18Z372-33.8-29.1-26.3-26-24.8-23.1-22.8-22.3-22.1-21.8-21.8-21.3-21.3-21.3-21.1-21.1-20.1-19.6-18.6-18.3-18.1-18
2017-12-06 00Z378-34.8-29.1-27.8-26.6-25.1-24.1-23.5-23.3-23.1-22.6-22.6-22.3-22-22-20.6-20.6-19.5-18.5-18.1-18.1-16.7
2017-12-06 06Z384-35-29.6-28.1-25.6-25.3-24.8-24.3-23.8-23.8-23.6-23.3-22.8-22.8-22.6-22-21.8-21.3-21-20.3-17.6-17.6-16.7

Retour à la carte

meteociel.fr™ | © 2004 - 2017 | Forums Météo | Prévi Paris | Liens météo | Média - Meteociel | Mentions légales | Contact
En poursuivant votre navigation sur Meteociel, vous acceptez l'utilisation des cookies. Ils assurent le bon fonctionnement de nos services. [ En savoir plus ] [ OK ]